sensor_id;sensor_type;location;lat;lon;timestamp;P1;durP1;ratioP1;P2;durP2;ratioP2
9900;SDS011;4989;48.772;9.154;2023-03-14T00:02:59;0.93;;;0.40;;
9900;SDS011;4989;48.772;9.154;2023-03-14T00:08:01;0.40;;;0.40;;
9900;SDS011;4989;48.772;9.154;2023-03-14T00:13:04;1.10;;;0.30;;
9900;SDS011;4989;48.772;9.154;2023-03-14T00:18:06;0.40;;;0.40;;
9900;SDS011;4989;48.772;9.154;2023-03-14T00:23:09;0.57;;;0.43;;
9900;SDS011;4989;48.772;9.154;2023-03-14T00:28:11;0.33;;;0.30;;
9900;SDS011;4989;48.772;9.154;2023-03-14T00:33:14;1.37;;;0.40;;
9900;SDS011;4989;48.772;9.154;2023-03-14T00:38:16;0.23;;;0.23;;
9900;SDS011;4989;48.772;9.154;2023-03-14T00:43:19;0.40;;;0.40;;
9900;SDS011;4989;48.772;9.154;2023-03-14T00:48:23;1.43;;;0.60;;
9900;SDS011;4989;48.772;9.154;2023-03-14T00:53:26;0.53;;;0.50;;
9900;SDS011;4989;48.772;9.154;2023-03-14T00:58:28;0.40;;;0.40;;
9900;SDS011;4989;48.772;9.154;2023-03-14T01:03:31;1.27;;;0.43;;
9900;SDS011;4989;48.772;9.154;2023-03-14T01:08:34;0.30;;;0.30;;
9900;SDS011;4989;48.772;9.154;2023-03-14T01:13:36;0.40;;;0.40;;
9900;SDS011;4989;48.772;9.154;2023-03-14T01:18:40;0.60;;;0.60;;
9900;SDS011;4989;48.772;9.154;2023-03-14T01:23:45;0.30;;;0.30;;
9900;SDS011;4989;48.772;9.154;2023-03-14T01:28:48;0.33;;;0.33;;
9900;SDS011;4989;48.772;9.154;2023-03-14T01:33:53;0.40;;;0.40;;
9900;SDS011;4989;48.772;9.154;2023-03-14T01:38:56;0.40;;;0.40;;
9900;SDS011;4989;48.772;9.154;2023-03-14T01:43:59;0.30;;;0.30;;
9900;SDS011;4989;48.772;9.154;2023-03-14T01:49:22;0.37;;;0.37;;
9900;SDS011;4989;48.772;9.154;2023-03-14T01:54:40;0.50;;;0.50;;
9900;SDS011;4989;48.772;9.154;2023-03-14T01:59:46;0.50;;;0.50;;
9900;SDS011;4989;48.772;9.154;2023-03-14T02:04:57;0.30;;;0.30;;
9900;SDS011;4989;48.772;9.154;2023-03-14T02:10:06;0.30;;;0.30;;
9900;SDS011;4989;48.772;9.154;2023-03-14T02:15:11;0.67;;;0.40;;
9900;SDS011;4989;48.772;9.154;2023-03-14T02:20:53;0.43;;;0.43;;
9900;SDS011;4989;48.772;9.154;2023-03-14T02:26:05;0.47;;;0.40;;
9900;SDS011;4989;48.772;9.154;2023-03-14T02:31:14;0.53;;;0.30;;
9900;SDS011;4989;48.772;9.154;2023-03-14T02:36:18;0.97;;;0.50;;
9900;SDS011;4989;48.772;9.154;2023-03-14T02:41:22;0.83;;;0.60;;
9900;SDS011;4989;48.772;9.154;2023-03-14T02:46:34;1.33;;;0.30;;
9900;SDS011;4989;48.772;9.154;2023-03-14T02:51:37;0.33;;;0.33;;
9900;SDS011;4989;48.772;9.154;2023-03-14T02:56:42;0.20;;;0.20;;
9900;SDS011;4989;48.772;9.154;2023-03-14T03:01:46;0.20;;;0.20;;
9900;SDS011;4989;48.772;9.154;2023-03-14T03:06:49;0.47;;;0.47;;
9900;SDS011;4989;48.772;9.154;2023-03-14T03:11:52;0.30;;;0.30;;
9900;SDS011;4989;48.772;9.154;2023-03-14T03:16:57;0.40;;;0.40;;
9900;SDS011;4989;48.772;9.154;2023-03-14T03:22:00;2.23;;;0.40;;
9900;SDS011;4989;48.772;9.154;2023-03-14T03:27:02;0.43;;;0.40;;
9900;SDS011;4989;48.772;9.154;2023-03-14T03:32:05;0.83;;;0.37;;
9900;SDS011;4989;48.772;9.154;2023-03-14T03:37:08;0.40;;;0.40;;
9900;SDS011;4989;48.772;9.154;2023-03-14T03:42:14;2.33;;;0.57;;
9900;SDS011;4989;48.772;9.154;2023-03-14T03:47:17;0.80;;;0.50;;
9900;SDS011;4989;48.772;9.154;2023-03-14T03:52:20;1.03;;;0.50;;
9900;SDS011;4989;48.772;9.154;2023-03-14T03:57:22;0.30;;;0.30;;
9900;SDS011;4989;48.772;9.154;2023-03-14T04:02:25;2.80;;;0.80;;
9900;SDS011;4989;48.772;9.154;2023-03-14T04:07:28;1.87;;;0.87;;
9900;SDS011;4989;48.772;9.154;2023-03-14T04:12:32;0.70;;;0.60;;
9900;SDS011;4989;48.772;9.154;2023-03-14T04:17:45;1.63;;;0.60;;
9900;SDS011;4989;48.772;9.154;2023-03-14T04:22:49;0.97;;;0.53;;
9900;SDS011;4989;48.772;9.154;2023-03-14T04:27:52;2.53;;;1.00;;
9900;SDS011;4989;48.772;9.154;2023-03-14T04:32:58;0.50;;;0.50;;
9900;SDS011;4989;48.772;9.154;2023-03-14T04:38:04;0.70;;;0.60;;
9900;SDS011;4989;48.772;9.154;2023-03-14T04:43:08;1.50;;;0.80;;
9900;SDS011;4989;48.772;9.154;2023-03-14T04:48:20;1.10;;;1.00;;
9900;SDS011;4989;48.772;9.154;2023-03-14T04:53:23;2.10;;;0.70;;
9900;SDS011;4989;48.772;9.154;2023-03-14T04:58:28;3.80;;;1.03;;
9900;SDS011;4989;48.772;9.154;2023-03-14T05:03:33;0.93;;;0.60;;
9900;SDS011;4989;48.772;9.154;2023-03-14T05:09:07;1.13;;;0.50;;
9900;SDS011;4989;48.772;9.154;2023-03-14T05:14:36;1.53;;;0.70;;
9900;SDS011;4989;48.772;9.154;2023-03-14T05:19:50;2.30;;;0.70;;
9900;SDS011;4989;48.772;9.154;2023-03-14T05:25:08;1.97;;;0.80;;
9900;SDS011;4989;48.772;9.154;2023-03-14T05:30:19;2.17;;;0.80;;
9900;SDS011;4989;48.772;9.154;2023-03-14T05:35:32;3.67;;;0.73;;
9900;SDS011;4989;48.772;9.154;2023-03-14T05:40:37;1.80;;;0.70;;
9900;SDS011;4989;48.772;9.154;2023-03-14T05:46:13;0.70;;;0.60;;
9900;SDS011;4989;48.772;9.154;2023-03-14T05:51:46;0.60;;;0.60;;
9900;SDS011;4989;48.772;9.154;2023-03-14T05:57:00;0.90;;;0.80;;
9900;SDS011;4989;48.772;9.154;2023-03-14T06:02:12;3.07;;;0.73;;
9900;SDS011;4989;48.772;9.154;2023-03-14T06:07:26;1.87;;;0.67;;
9900;SDS011;4989;48.772;9.154;2023-03-14T06:12:29;1.73;;;0.73;;
9900;SDS011;4989;48.772;9.154;2023-03-14T06:17:31;2.07;;;0.53;;
9900;SDS011;4989;48.772;9.154;2023-03-14T06:22:39;1.13;;;0.47;;
9900;SDS011;4989;48.772;9.154;2023-03-14T06:27:45;1.97;;;0.50;;
9900;SDS011;4989;48.772;9.154;2023-03-14T06:32:49;1.60;;;0.87;;
9900;SDS011;4989;48.772;9.154;2023-03-14T06:37:55;2.43;;;0.80;;
9900;SDS011;4989;48.772;9.154;2023-03-14T06:42:57;1.53;;;0.90;;
9900;SDS011;4989;48.772;9.154;2023-03-14T06:48:03;1.57;;;0.90;;
9900;SDS011;4989;48.772;9.154;2023-03-14T06:53:13;2.10;;;0.80;;
9900;SDS011;4989;48.772;9.154;2023-03-14T06:58:17;1.30;;;0.43;;
9900;SDS011;4989;48.772;9.154;2023-03-14T07:03:20;1.07;;;0.67;;
9900;SDS011;4989;48.772;9.154;2023-03-14T07:08:25;0.87;;;0.63;;
9900;SDS011;4989;48.772;9.154;2023-03-14T07:13:27;1.00;;;0.57;;
9900;SDS011;4989;48.772;9.154;2023-03-14T07:18:35;0.43;;;0.43;;
9900;SDS011;4989;48.772;9.154;2023-03-14T07:23:39;1.03;;;0.77;;
9900;SDS011;4989;48.772;9.154;2023-03-14T07:28:42;2.73;;;0.67;;
9900;SDS011;4989;48.772;9.154;2023-03-14T07:33:49;0.57;;;0.57;;
9900;SDS011;4989;48.772;9.154;2023-03-14T07:38:54;1.13;;;0.67;;
9900;SDS011;4989;48.772;9.154;2023-03-14T07:44:07;0.60;;;0.60;;
9900;SDS011;4989;48.772;9.154;2023-03-14T07:49:09;0.50;;;0.43;;
9900;SDS011;4989;48.772;9.154;2023-03-14T07:54:12;0.60;;;0.60;;
9900;SDS011;4989;48.772;9.154;2023-03-14T07:59:14;2.00;;;0.67;;
9900;SDS011;4989;48.772;9.154;2023-03-14T08:04:17;0.90;;;0.60;;
9900;SDS011;4989;48.772;9.154;2023-03-14T08:09:20;0.43;;;0.40;;
9900;SDS011;4989;48.772;9.154;2023-03-14T08:14:22;0.50;;;0.50;;
9900;SDS011;4989;48.772;9.154;2023-03-14T08:19:25;0.97;;;0.53;;
9900;SDS011;4989;48.772;9.154;2023-03-14T08:24:27;0.40;;;0.40;;
9900;SDS011;4989;48.772;9.154;2023-03-14T08:29:30;0.63;;;0.60;;
9900;SDS011;4989;48.772;9.154;2023-03-14T08:34:33;1.20;;;0.33;;
9900;SDS011;4989;48.772;9.154;2023-03-14T08:39:35;0.87;;;0.33;;
9900;SDS011;4989;48.772;9.154;2023-03-14T08:44:38;0.50;;;0.50;;
9900;SDS011;4989;48.772;9.154;2023-03-14T08:49:44;0.30;;;0.30;;
9900;SDS011;4989;48.772;9.154;2023-03-14T08:54:46;0.40;;;0.40;;
9900;SDS011;4989;48.772;9.154;2023-03-14T08:59:49;0.50;;;0.30;;
9900;SDS011;4989;48.772;9.154;2023-03-14T09:04:52;0.93;;;0.40;;
9900;SDS011;4989;48.772;9.154;2023-03-14T09:09:55;0.63;;;0.60;;
9900;SDS011;4989;48.772;9.154;2023-03-14T09:14:58;0.50;;;0.50;;
9900;SDS011;4989;48.772;9.154;2023-03-14T09:20:02;2.10;;;0.50;;
9900;SDS011;4989;48.772;9.154;2023-03-14T09:25:08;0.83;;;0.50;;
9900;SDS011;4989;48.772;9.154;2023-03-14T09:30:12;0.60;;;0.60;;
9900;SDS011;4989;48.772;9.154;2023-03-14T09:35:15;2.07;;;0.53;;
9900;SDS011;4989;48.772;9.154;2023-03-14T09:40:17;0.30;;;0.30;;
9900;SDS011;4989;48.772;9.154;2023-03-14T09:45:25;1.13;;;0.47;;
9900;SDS011;4989;48.772;9.154;2023-03-14T09:50:32;0.87;;;0.47;;
9900;SDS011;4989;48.772;9.154;2023-03-14T09:55:42;0.67;;;0.33;;
9900;SDS011;4989;48.772;9.154;2023-03-14T10:00:46;0.87;;;0.40;;
9900;SDS011;4989;48.772;9.154;2023-03-14T10:05:50;0.60;;;0.30;;
9900;SDS011;4989;48.772;9.154;2023-03-14T10:10:54;1.40;;;0.27;;
9900;SDS011;4989;48.772;9.154;2023-03-14T10:16:00;0.40;;;0.40;;
9900;SDS011;4989;48.772;9.154;2023-03-14T10:21:21;0.53;;;0.50;;
9900;SDS011;4989;48.772;9.154;2023-03-14T10:26:30;1.40;;;0.30;;
9900;SDS011;4989;48.772;9.154;2023-03-14T10:31:46;0.30;;;0.30;;
9900;SDS011;4989;48.772;9.154;2023-03-14T10:36:55;0.30;;;0.30;;
9900;SDS011;4989;48.772;9.154;2023-03-14T10:42:03;0.30;;;0.30;;
9900;SDS011;4989;48.772;9.154;2023-03-14T10:47:15;0.40;;;0.40;;
9900;SDS011;4989;48.772;9.154;2023-03-14T10:52:22;0.77;;;0.13;;
9900;SDS011;4989;48.772;9.154;2023-03-14T10:57:42;1.27;;;0.40;;
9900;SDS011;4989;48.772;9.154;2023-03-14T11:03:06;0.20;;;0.20;;
9900;SDS011;4989;48.772;9.154;2023-03-14T11:13:52;0.50;;;0.40;;
9900;SDS011;4989;48.772;9.154;2023-03-14T11:19:03;0.30;;;0.30;;
9900;SDS011;4989;48.772;9.154;2023-03-14T11:30:21;1.13;;;0.27;;
9900;SDS011;4989;48.772;9.154;2023-03-14T11:35:43;0.20;;;0.20;;
9900;SDS011;4989;48.772;9.154;2023-03-14T11:40:54;0.20;;;0.20;;
9900;SDS011;4989;48.772;9.154;2023-03-14T11:46:03;0.20;;;0.20;;
9900;SDS011;4989;48.772;9.154;2023-03-14T11:51:29;0.43;;;0.43;;
9900;SDS011;4989;48.772;9.154;2023-03-14T11:56:43;0.67;;;0.50;;
9900;SDS011;4989;48.772;9.154;2023-03-14T12:01:53;0.40;;;0.30;;
9900;SDS011;4989;48.772;9.154;2023-03-14T12:07:03;0.37;;;0.33;;
9900;SDS011;4989;48.772;9.154;2023-03-14T12:12:19;0.30;;;0.30;;
9900;SDS011;4989;48.772;9.154;2023-03-14T12:17:34;0.30;;;0.30;;
9900;SDS011;4989;48.772;9.154;2023-03-14T12:22:45;0.30;;;0.30;;
9900;SDS011;4989;48.772;9.154;2023-03-14T12:43:44;0.47;;;0.47;;
9900;SDS011;4989;48.772;9.154;2023-03-14T12:49:03;2.20;;;0.80;;
9900;SDS011;4989;48.772;9.154;2023-03-14T13:09:51;0.50;;;0.50;;
9900;SDS011;4989;48.772;9.154;2023-03-14T13:15:01;0.70;;;0.70;;
9900;SDS011;4989;48.772;9.154;2023-03-14T13:20:32;0.97;;;0.60;;
9900;SDS011;4989;48.772;9.154;2023-03-14T13:25:38;0.90;;;0.67;;
9900;SDS011;4989;48.772;9.154;2023-03-14T13:30:44;0.87;;;0.83;;
9900;SDS011;4989;48.772;9.154;2023-03-14T13:35:53;2.17;;;0.67;;
9900;SDS011;4989;48.772;9.154;2023-03-14T13:40:57;1.10;;;0.80;;
9900;SDS011;4989;48.772;9.154;2023-03-14T13:51:18;0.97;;;0.50;;
9900;SDS011;4989;48.772;9.154;2023-03-14T13:56:23;1.33;;;0.60;;
9900;SDS011;4989;48.772;9.154;2023-03-14T14:01:30;0.80;;;0.80;;
9900;SDS011;4989;48.772;9.154;2023-03-14T14:06:36;1.27;;;0.70;;
9900;SDS011;4989;48.772;9.154;2023-03-14T14:11:44;2.43;;;0.70;;
9900;SDS011;4989;48.772;9.154;2023-03-14T14:17:13;0.80;;;0.73;;
9900;SDS011;4989;48.772;9.154;2023-03-14T14:22:19;1.90;;;0.80;;
9900;SDS011;4989;48.772;9.154;2023-03-14T14:27:56;0.97;;;0.50;;
9900;SDS011;4989;48.772;9.154;2023-03-14T14:32:52;0.47;;;0.47;;
9900;SDS011;4989;48.772;9.154;2023-03-14T14:38:16;1.83;;;0.63;;
9900;SDS011;4989;48.772;9.154;2023-03-14T14:43:25;0.40;;;0.40;;
9900;SDS011;4989;48.772;9.154;2023-03-14T14:48:29;1.10;;;0.37;;
9900;SDS011;4989;48.772;9.154;2023-03-14T14:53:41;1.33;;;0.53;;
9900;SDS011;4989;48.772;9.154;2023-03-14T14:58:45;1.20;;;0.47;;
9900;SDS011;4989;48.772;9.154;2023-03-14T15:03:50;1.40;;;0.77;;
9900;SDS011;4989;48.772;9.154;2023-03-14T15:08:53;2.27;;;0.60;;
9900;SDS011;4989;48.772;9.154;2023-03-14T15:13:56;1.57;;;0.80;;
9900;SDS011;4989;48.772;9.154;2023-03-14T15:18:59;1.40;;;0.77;;
9900;SDS011;4989;48.772;9.154;2023-03-14T15:24:23;0.50;;;0.50;;
9900;SDS011;4989;48.772;9.154;2023-03-14T15:29:26;1.73;;;0.60;;
9900;SDS011;4989;48.772;9.154;2023-03-14T15:34:30;1.77;;;0.60;;
9900;SDS011;4989;48.772;9.154;2023-03-14T15:39:33;2.37;;;0.80;;
9900;SDS011;4989;48.772;9.154;2023-03-14T15:44:36;1.10;;;0.80;;
9900;SDS011;4989;48.772;9.154;2023-03-14T15:49:40;1.93;;;0.83;;
9900;SDS011;4989;48.772;9.154;2023-03-14T15:54:42;3.40;;;0.87;;
9900;SDS011;4989;48.772;9.154;2023-03-14T15:59:45;1.97;;;0.67;;
9900;SDS011;4989;48.772;9.154;2023-03-14T16:04:47;1.07;;;0.70;;
9900;SDS011;4989;48.772;9.154;2023-03-14T16:09:50;1.43;;;0.87;;
9900;SDS011;4989;48.772;9.154;2023-03-14T16:14:53;1.07;;;0.70;;
9900;SDS011;4989;48.772;9.154;2023-03-14T16:19:56;0.50;;;0.50;;
9900;SDS011;4989;48.772;9.154;2023-03-14T16:24:58;1.30;;;0.60;;
9900;SDS011;4989;48.772;9.154;2023-03-14T16:30:01;2.10;;;0.87;;
9900;SDS011;4989;48.772;9.154;2023-03-14T16:35:04;1.23;;;0.90;;
9900;SDS011;4989;48.772;9.154;2023-03-14T16:40:07;1.97;;;0.90;;
9900;SDS011;4989;48.772;9.154;2023-03-14T16:45:13;1.63;;;0.87;;
9900;SDS011;4989;48.772;9.154;2023-03-14T16:50:16;1.63;;;1.10;;
9900;SDS011;4989;48.772;9.154;2023-03-14T16:55:19;1.40;;;0.80;;
9900;SDS011;4989;48.772;9.154;2023-03-14T17:00:22;2.63;;;0.73;;
9900;SDS011;4989;48.772;9.154;2023-03-14T17:05:24;1.17;;;0.73;;
9900;SDS011;4989;48.772;9.154;2023-03-14T17:10:27;1.73;;;0.83;;
9900;SDS011;4989;48.772;9.154;2023-03-14T17:15:29;3.53;;;1.17;;
9900;SDS011;4989;48.772;9.154;2023-03-14T17:20:32;0.80;;;0.80;;
9900;SDS011;4989;48.772;9.154;2023-03-14T17:25:35;1.27;;;1.00;;
9900;SDS011;4989;48.772;9.154;2023-03-14T17:30:38;1.40;;;1.10;;
9900;SDS011;4989;48.772;9.154;2023-03-14T17:35:43;2.33;;;1.10;;
9900;SDS011;4989;48.772;9.154;2023-03-14T17:40:46;1.50;;;1.33;;
9900;SDS011;4989;48.772;9.154;2023-03-14T17:45:59;2.80;;;1.10;;
9900;SDS011;4989;48.772;9.154;2023-03-14T17:51:07;1.80;;;1.30;;
9900;SDS011;4989;48.772;9.154;2023-03-14T17:56:10;2.20;;;1.23;;
9900;SDS011;4989;48.772;9.154;2023-03-14T18:01:14;2.57;;;0.97;;
9900;SDS011;4989;48.772;9.154;2023-03-14T18:06:18;3.10;;;1.27;;
9900;SDS011;4989;48.772;9.154;2023-03-14T18:11:21;1.17;;;0.90;;
9900;SDS011;4989;48.772;9.154;2023-03-14T18:16:24;1.40;;;0.90;;
9900;SDS011;4989;48.772;9.154;2023-03-14T18:21:27;1.90;;;0.87;;
9900;SDS011;4989;48.772;9.154;2023-03-14T18:26:30;1.20;;;0.83;;
9900;SDS011;4989;48.772;9.154;2023-03-14T18:31:33;2.03;;;0.90;;
9900;SDS011;4989;48.772;9.154;2023-03-14T18:36:36;1.50;;;0.87;;
9900;SDS011;4989;48.772;9.154;2023-03-14T18:41:39;1.87;;;0.80;;
9900;SDS011;4989;48.772;9.154;2023-03-14T18:46:41;1.17;;;0.93;;
9900;SDS011;4989;48.772;9.154;2023-03-14T18:51:44;1.07;;;0.60;;
9900;SDS011;4989;48.772;9.154;2023-03-14T18:56:46;0.53;;;0.53;;
9900;SDS011;4989;48.772;9.154;2023-03-14T19:01:49;1.00;;;0.70;;
9900;SDS011;4989;48.772;9.154;2023-03-14T19:06:52;0.40;;;0.40;;
9900;SDS011;4989;48.772;9.154;2023-03-14T19:11:55;2.40;;;0.83;;
9900;SDS011;4989;48.772;9.154;2023-03-14T19:16:57;1.20;;;0.73;;
9900;SDS011;4989;48.772;9.154;2023-03-14T19:21:59;0.70;;;0.70;;
9900;SDS011;4989;48.772;9.154;2023-03-14T19:27:02;2.90;;;0.90;;
9900;SDS011;4989;48.772;9.154;2023-03-14T19:32:05;1.03;;;0.70;;
9900;SDS011;4989;48.772;9.154;2023-03-14T19:37:07;1.63;;;0.80;;
9900;SDS011;4989;48.772;9.154;2023-03-14T19:42:10;2.97;;;1.03;;
9900;SDS011;4989;48.772;9.154;2023-03-14T19:47:13;1.17;;;0.70;;
9900;SDS011;4989;48.772;9.154;2023-03-14T19:52:16;0.77;;;0.77;;
9900;SDS011;4989;48.772;9.154;2023-03-14T19:57:19;0.83;;;0.70;;
9900;SDS011;4989;48.772;9.154;2023-03-14T20:02:22;1.80;;;1.00;;
9900;SDS011;4989;48.772;9.154;2023-03-14T20:07:24;2.83;;;1.10;;
9900;SDS011;4989;48.772;9.154;2023-03-14T20:12:31;1.57;;;1.00;;
9900;SDS011;4989;48.772;9.154;2023-03-14T20:17:34;1.77;;;1.00;;
9900;SDS011;4989;48.772;9.154;2023-03-14T20:22:38;1.50;;;1.00;;
9900;SDS011;4989;48.772;9.154;2023-03-14T20:27:42;3.00;;;1.13;;
9900;SDS011;4989;48.772;9.154;2023-03-14T20:32:46;1.33;;;0.80;;
9900;SDS011;4989;48.772;9.154;2023-03-14T20:37:51;1.67;;;0.80;;
9900;SDS011;4989;48.772;9.154;2023-03-14T20:42:54;1.53;;;0.87;;
9900;SDS011;4989;48.772;9.154;2023-03-14T20:47:57;2.00;;;0.90;;
9900;SDS011;4989;48.772;9.154;2023-03-14T20:52:59;2.20;;;1.10;;
9900;SDS011;4989;48.772;9.154;2023-03-14T20:58:05;2.07;;;1.00;;
9900;SDS011;4989;48.772;9.154;2023-03-14T21:03:08;1.20;;;1.10;;
9900;SDS011;4989;48.772;9.154;2023-03-14T21:08:11;1.70;;;0.90;;
9900;SDS011;4989;48.772;9.154;2023-03-14T21:13:14;2.00;;;1.00;;
9900;SDS011;4989;48.772;9.154;2023-03-14T21:18:17;1.20;;;0.97;;
9900;SDS011;4989;48.772;9.154;2023-03-14T21:23:23;2.73;;;0.90;;
9900;SDS011;4989;48.772;9.154;2023-03-14T21:28:29;1.47;;;1.00;;
9900;SDS011;4989;48.772;9.154;2023-03-14T21:33:32;1.77;;;0.70;;
9900;SDS011;4989;48.772;9.154;2023-03-14T21:38:35;1.23;;;1.00;;
9900;SDS011;4989;48.772;9.154;2023-03-14T21:43:37;0.80;;;0.80;;
9900;SDS011;4989;48.772;9.154;2023-03-14T21:48:44;1.80;;;1.23;;
9900;SDS011;4989;48.772;9.154;2023-03-14T21:53:47;1.70;;;1.00;;
9900;SDS011;4989;48.772;9.154;2023-03-14T21:58:49;1.97;;;1.00;;
9900;SDS011;4989;48.772;9.154;2023-03-14T22:03:52;1.60;;;0.90;;
9900;SDS011;4989;48.772;9.154;2023-03-14T22:08:55;1.40;;;0.90;;
9900;SDS011;4989;48.772;9.154;2023-03-14T22:13:57;1.10;;;0.90;;
9900;SDS011;4989;48.772;9.154;2023-03-14T22:19:00;0.80;;;0.80;;
9900;SDS011;4989;48.772;9.154;2023-03-14T22:24:02;1.43;;;0.80;;
9900;SDS011;4989;48.772;9.154;2023-03-14T22:29:05;1.33;;;1.20;;
9900;SDS011;4989;48.772;9.154;2023-03-14T22:34:08;1.20;;;1.10;;
9900;SDS011;4989;48.772;9.154;2023-03-14T22:39:10;3.43;;;2.10;;
9900;SDS011;4989;48.772;9.154;2023-03-14T22:44:13;0.90;;;0.90;;
9900;SDS011;4989;48.772;9.154;2023-03-14T22:49:16;0.97;;;0.93;;
9900;SDS011;4989;48.772;9.154;2023-03-14T22:54:18;1.13;;;1.10;;
9900;SDS011;4989;48.772;9.154;2023-03-14T22:59:21;1.53;;;1.20;;
9900;SDS011;4989;48.772;9.154;2023-03-14T23:04:24;1.30;;;1.20;;
9900;SDS011;4989;48.772;9.154;2023-03-14T23:09:27;1.00;;;1.00;;
9900;SDS011;4989;48.772;9.154;2023-03-14T23:14:30;1.77;;;1.10;;
9900;SDS011;4989;48.772;9.154;2023-03-14T23:19:32;4.50;;;2.07;;
9900;SDS011;4989;48.772;9.154;2023-03-14T23:24:39;5.53;;;2.70;;
9900;SDS011;4989;48.772;9.154;2023-03-14T23:29:44;2.33;;;1.40;;
9900;SDS011;4989;48.772;9.154;2023-03-14T23:34:47;2.93;;;1.40;;
9900;SDS011;4989;48.772;9.154;2023-03-14T23:39:50;1.87;;;1.50;;
9900;SDS011;4989;48.772;9.154;2023-03-14T23:44:53;3.43;;;1.50;;
9900;SDS011;4989;48.772;9.154;2023-03-14T23:49:55;1.70;;;1.60;;
9900;SDS011;4989;48.772;9.154;2023-03-14T23:54:58;5.33;;;3.40;;
